Anita, Pennsylvania
Current Conditions -  °F | °C
As of 8:53 AM on Thursday 23 Oct 2014 (Local Time) from KDUJ Reporting Station
Overcast Overcast  
Wind Chill: 38°   Ceiling: 1300
Heat Index: 44°   Visibility: 10mi
Dew Point: 39°   Wind: 12mph
Humidity: 82%   Direction: 330°NNW
Pressure: 30.05"   Gusts: 20mph
Location:  41°N, 78.96°W
Report Text: KDUJ 231253Z AUTO 33010G17KT 10SM OVC013 07/04 A3005 RMK AO2 SLP184 T00670039
Loading
Personal Weather Stations






























Interactive Weather Map New forecast layout! Learn more

10-Day Weather Forecast

Advertisements
Track Severe Weather on mobile